createdAt,value
2023-02-09T00:01:54.774Z,26.40
2023-02-09T00:07:00.278Z,28.00
2023-02-09T00:12:22.901Z,25.40
2023-02-09T00:17:25.666Z,22.20
2023-02-09T00:22:28.632Z,26.00
2023-02-09T00:27:35.508Z,23.60
2023-02-09T00:32:39.565Z,23.20
2023-02-09T00:37:42.372Z,22.40
2023-02-09T00:42:46.549Z,22.80
2023-02-09T00:47:50.229Z,24.60
2023-02-09T00:52:53.226Z,24.80
2023-02-09T00:57:57.563Z,23.60
2023-02-09T01:03:00.359Z,22.60
2023-02-09T01:08:03.169Z,28.00
2023-02-09T01:13:07.396Z,23.60
2023-02-09T01:18:10.241Z,22.60
2023-02-09T01:23:13.012Z,23.20
2023-02-09T01:28:17.160Z,21.60
2023-02-09T01:33:19.926Z,25.80
2023-02-09T01:38:23.979Z,20.60
2023-02-09T01:43:28.264Z,24.40
2023-02-09T01:48:31.618Z,22.00
2023-02-09T01:53:34.403Z,22.00
2023-02-09T01:58:38.541Z,23.60
2023-02-09T02:03:41.334Z,21.00
2023-02-09T02:08:46.567Z,21.60
2023-02-09T02:13:50.660Z,23.80
2023-02-09T02:19:02.948Z,24.00
2023-02-09T02:24:19.971Z,24.80
2023-02-09T02:29:46.678Z,22.80
2023-02-09T02:34:52.363Z,22.00
2023-02-09T02:40:00.320Z,22.40
2023-02-09T02:45:12.451Z,23.00
2023-02-09T02:50:17.796Z,23.20
2023-02-09T02:55:21.403Z,20.20
2023-02-09T03:00:25.440Z,24.00
2023-02-09T03:05:29.755Z,19.00
2023-02-09T03:10:34.518Z,21.60
2023-02-09T03:15:44.008Z,23.40
2023-02-09T03:20:51.398Z,21.20
2023-02-09T03:25:54.197Z,21.40
2023-02-09T03:30:57.168Z,24.20
2023-02-09T03:36:02.274Z,20.80
2023-02-09T03:41:07.229Z,19.40
2023-02-09T03:46:10.887Z,19.40
2023-02-09T03:51:15.090Z,21.20
2023-02-09T03:56:17.931Z,24.40
2023-02-09T04:01:20.791Z,21.80
2023-02-09T04:06:25.190Z,19.60
2023-02-09T04:11:28.792Z,22.80
2023-02-09T04:16:32.008Z,22.20
2023-02-09T04:21:36.264Z,20.20
2023-02-09T04:26:39.126Z,19.00
2023-02-09T04:31:41.947Z,20.40
2023-02-09T04:36:46.130Z,18.00
2023-02-09T04:41:49.014Z,18.00
2023-02-09T04:46:51.807Z,19.00
2023-02-09T04:51:56.052Z,17.80
2023-02-09T04:57:12.944Z,18.20
2023-02-09T05:02:15.993Z,17.80
2023-02-09T05:07:20.183Z,18.60
2023-02-09T05:12:22.986Z,20.00
2023-02-09T05:17:25.894Z,21.20
2023-02-09T05:22:30.126Z,17.80
2023-02-09T05:27:32.876Z,17.40
2023-02-09T05:32:35.656Z,18.40
2023-02-09T05:37:39.781Z,18.60
2023-02-09T05:42:42.579Z,19.00
2023-02-09T05:47:45.327Z,20.60
2023-02-09T05:52:49.471Z,19.00
2023-02-09T05:57:52.232Z,18.80
2023-02-09T06:02:54.988Z,18.60
2023-02-09T06:07:59.174Z,17.40
2023-02-09T06:13:01.955Z,17.60
2023-02-09T06:18:05.012Z,22.00
2023-02-09T06:23:09.153Z,17.20
2023-02-09T06:28:12.064Z,18.20
2023-02-09T06:33:14.969Z,20.20
2023-02-09T06:38:19.105Z,15.20
2023-02-09T06:43:21.953Z,17.20
2023-02-09T06:48:24.773Z,19.20
2023-02-09T06:53:29.062Z,17.00
2023-02-09T06:58:31.865Z,17.20
2023-02-09T07:03:34.715Z,17.20
2023-02-09T07:08:38.873Z,17.80
2023-02-09T07:13:41.645Z,17.20
2023-02-09T07:18:44.601Z,17.40
2023-02-09T07:23:48.830Z,18.40
2023-02-09T07:28:51.625Z,17.20
2023-02-09T07:33:55.160Z,17.20
2023-02-09T07:38:59.567Z,18.40
2023-02-09T07:44:03.046Z,15.40
2023-02-09T07:49:05.817Z,20.40
2023-02-09T07:54:13.396Z,16.60
2023-02-09T07:59:16.557Z,18.00
2023-02-09T08:04:19.556Z,39.75
2023-02-09T08:09:23.742Z,40.00
2023-02-09T08:14:27.555Z,44.50
2023-02-09T08:19:30.362Z,38.40
2023-02-09T08:24:34.581Z,31.60
2023-02-09T08:29:37.368Z,30.80
2023-02-09T08:34:40.133Z,28.60
2023-02-09T08:39:45.168Z,34.40
2023-02-09T08:44:47.940Z,28.40
2023-02-09T08:49:51.563Z,30.20
2023-02-09T08:54:55.797Z,29.40
2023-02-09T08:59:58.543Z,25.00
2023-02-09T09:05:01.237Z,24.60
2023-02-09T09:10:06.107Z,21.20
2023-02-09T09:15:09.546Z,23.20
2023-02-09T09:20:12.745Z,25.60
2023-02-09T09:25:17.030Z,27.40
2023-02-09T09:30:20.197Z,24.80
2023-02-09T09:35:22.965Z,22.00
2023-02-09T09:40:28.913Z,23.00
2023-02-09T09:45:33.186Z,22.00
2023-02-09T09:50:38.159Z,20.00
2023-02-09T09:55:42.283Z,22.40
2023-02-09T10:00:45.025Z,23.80
2023-02-09T10:05:49.168Z,21.60
2023-02-09T10:10:56.386Z,22.60
2023-02-09T10:15:59.534Z,21.20
2023-02-09T10:21:03.350Z,21.40
2023-02-09T10:26:24.308Z,19.00
2023-02-09T10:31:33.312Z,23.60
2023-02-09T10:36:37.546Z,18.60
2023-02-09T10:41:43.681Z,20.60
2023-02-09T10:46:47.113Z,19.60
2023-02-09T10:51:51.097Z,18.80
2023-02-09T10:56:55.268Z,21.40
2023-02-09T11:01:58.865Z,21.40
2023-02-09T11:07:02.884Z,18.80
2023-02-09T11:12:07.422Z,22.20
2023-02-09T11:17:15.700Z,16.20
2023-02-09T11:22:20.351Z,17.80
2023-02-09T11:27:44.642Z,18.00
2023-02-09T11:32:49.392Z,16.40
2023-02-09T11:37:55.021Z,16.60
2023-02-09T11:43:07.944Z,19.20
2023-02-09T11:48:12.188Z,16.00
2023-02-09T11:53:21.224Z,16.00
2023-02-09T11:58:30.789Z,17.40
2023-02-09T12:03:33.566Z,15.40
2023-02-09T12:08:45.332Z,16.40
2023-02-09T12:13:58.509Z,15.40
2023-02-09T12:19:01.647Z,15.40
2023-02-09T12:24:04.520Z,19.80
2023-02-09T12:29:26.400Z,16.60
2023-02-09T12:34:30.382Z,15.20
2023-02-09T12:39:33.205Z,16.60
2023-02-09T12:44:54.709Z,14.60
2023-02-09T12:50:03.829Z,15.20
2023-02-09T12:55:24.332Z,15.40
2023-02-09T13:00:33.626Z,13.20
2023-02-09T13:05:39.108Z,11.80
2023-02-09T13:10:43.682Z,15.40
2023-02-09T13:15:51.611Z,13.00
2023-02-09T13:21:16.372Z,13.40
2023-02-09T13:26:20.512Z,17.20
2023-02-09T13:31:35.446Z,27.40
2023-02-09T13:36:40.476Z,29.60
2023-02-09T13:41:48.338Z,53.33
2023-02-09T13:46:57.085Z,78.50
2023-02-09T13:52:10.067Z,91.00
2023-02-09T13:57:19.182Z,131.00
2023-02-09T14:02:25.530Z,145.75
2023-02-09T14:07:30.349Z,147.50
2023-02-09T14:12:52.184Z,148.25
2023-02-09T14:17:56.608Z,143.00
2023-02-09T14:23:00.276Z,127.25
2023-02-09T14:28:03.528Z,120.75
2023-02-09T14:33:17.608Z,118.50
2023-02-09T14:38:35.084Z,113.25
2023-02-09T14:43:37.894Z,119.00
2023-02-09T14:48:42.089Z,113.25
2023-02-09T14:53:44.994Z,108.50
2023-02-09T14:58:47.815Z,108.25
2023-02-09T15:03:51.974Z,111.00
2023-02-09T15:08:54.810Z,104.75
2023-02-09T15:13:58.365Z,103.50
2023-02-09T15:19:04.775Z,99.50
2023-02-09T15:24:07.700Z,102.00
2023-02-09T15:29:12.215Z,101.50
2023-02-09T15:34:16.475Z,101.50
2023-02-09T15:39:20.853Z,99.00
2023-02-09T15:44:49.370Z,98.75
2023-02-09T15:49:54.641Z,98.00
2023-02-09T15:54:57.522Z,94.25
2023-02-09T16:00:00.290Z,93.50
2023-02-09T16:05:04.631Z,98.00
2023-02-09T16:10:08.235Z,97.25
2023-02-09T16:15:15.530Z,94.50
2023-02-09T16:20:20.409Z,92.50
2023-02-09T16:25:24.388Z,98.50
2023-02-09T16:30:28.365Z,93.75
2023-02-09T16:35:32.526Z,93.75
2023-02-09T16:40:35.328Z,94.50
2023-02-09T16:45:38.660Z,91.50
2023-02-09T16:50:46.823Z,89.50
2023-02-09T16:55:50.350Z,94.25
2023-02-09T17:00:53.487Z,89.25
2023-02-09T17:05:57.628Z,89.00
2023-02-09T17:11:00.869Z,86.75
2023-02-09T17:16:05.096Z,90.25
2023-02-09T17:21:10.646Z,87.75
2023-02-09T17:26:13.578Z,84.50
2023-02-09T17:31:18.056Z,85.50
2023-02-09T17:36:27.606Z,84.75
2023-02-09T17:41:33.911Z,87.25
2023-02-09T17:46:36.818Z,84.50
2023-02-09T17:51:41.797Z,81.00
2023-02-09T17:56:44.636Z,83.50
2023-02-09T18:01:49.686Z,82.50
2023-02-09T18:06:55.481Z,76.00
2023-02-09T18:12:02.013Z,77.25
2023-02-09T18:17:04.965Z,82.25
2023-02-09T18:22:11.832Z,76.75
2023-02-09T18:27:14.960Z,77.00
2023-02-09T18:32:18.208Z,77.00
2023-02-09T18:37:22.485Z,72.00
2023-02-09T18:42:25.419Z,75.33
2023-02-09T18:47:28.247Z,75.25
2023-02-09T18:52:32.409Z,70.33
2023-02-09T18:57:35.192Z,76.67
2023-02-09T19:02:38.330Z,68.00
2023-02-09T19:07:43.711Z,67.33
2023-02-09T19:12:46.708Z,67.00
2023-02-09T19:17:49.684Z,64.67
2023-02-09T19:22:53.898Z,66.67
2023-02-09T19:27:57.052Z,68.33
2023-02-09T19:33:00.173Z,65.67
2023-02-09T19:38:04.327Z,62.00
2023-02-09T19:43:07.364Z,63.00
2023-02-09T19:48:11.475Z,61.33
2023-02-09T19:53:15.745Z,61.33
2023-02-09T19:58:21.250Z,66.67
2023-02-09T20:03:24.216Z,60.00
2023-02-09T20:08:28.679Z,59.33
2023-02-09T20:13:31.550Z,60.00
2023-02-09T20:18:34.336Z,58.25
2023-02-09T20:23:38.618Z,50.75
2023-02-09T20:28:41.401Z,50.00
2023-02-09T20:33:44.275Z,57.25
2023-02-09T20:38:48.565Z,50.25
2023-02-09T20:44:09.067Z,48.50
2023-02-09T20:49:12.815Z,51.25
2023-02-09T20:54:17.052Z,46.00
2023-02-09T20:59:20.108Z,47.25
2023-02-09T21:04:23.042Z,43.25
2023-02-09T21:09:28.260Z,44.00
2023-02-09T21:14:41.556Z,50.00
2023-02-09T21:19:45.508Z,47.75
2023-02-09T21:24:49.804Z,43.25
2023-02-09T21:29:52.704Z,43.50
2023-02-09T21:34:55.462Z,43.50
2023-02-09T21:40:02.786Z,41.50
2023-02-09T21:45:07.772Z,42.75
2023-02-09T21:50:12.382Z,38.25
2023-02-09T21:55:17.007Z,42.75
2023-02-09T22:00:20.133Z,41.00
2023-02-09T22:05:22.998Z,41.50
2023-02-09T22:10:27.119Z,43.75
2023-02-09T22:15:29.977Z,42.75
2023-02-09T22:20:32.779Z,35.75
2023-02-09T22:25:37.023Z,37.75
2023-02-09T22:30:39.844Z,37.75
2023-02-09T22:35:42.631Z,36.50
2023-02-09T22:40:46.762Z,33.25
2023-02-09T22:45:55.799Z,31.20
2023-02-09T22:50:58.768Z,39.00
2023-02-09T22:56:04.209Z,36.25
2023-02-09T23:01:07.266Z,38.25
2023-02-09T23:06:11.870Z,35.75
2023-02-09T23:11:16.811Z,34.20
2023-02-09T23:16:20.536Z,34.75
2023-02-09T23:21:24.530Z,31.75
2023-02-09T23:26:28.662Z,36.80
2023-02-09T23:31:31.658Z,28.00
2023-02-09T23:36:34.926Z,28.40
2023-02-09T23:41:39.148Z,30.60
2023-02-09T23:46:41.962Z,31.60
2023-02-09T23:51:45.038Z,28.60
2023-02-09T23:56:49.854Z,28.20
